Time;durP1;ratioP1;P1;durP2;ratioP2;P2;SDS_P1;SDS_P2;PMS_P1;PMS_P2;Temp;Humidity;BMP_temperature;BMP_pressure;BME280_temperature;BME280_humidity;BME280_pressure;Samples;Min_cycle;Max_cycle;Signal;HPM_P1;HPM_P2
2022/12/22 04:29:56;;;;;;;21.65;15.00;;;13.20;70.40;;;;;;5572735;23;20060;-78
2022/12/22 04:32:22;;;;;;;22.15;15.45;;;13.30;70.40;;;;;;4919182;29;20048;-75
2022/12/22 04:34:47;;;;;;;21.70;14.23;;;13.20;70.30;;;;;;4919635;29;20044;-68
2022/12/22 04:37:13;;;;;;;23.30;15.15;;;13.30;70.30;;;;;;4919999;29;20044;-74
2022/12/22 04:39:39;;;;;;;25.23;14.98;;;13.30;70.30;;;;;;4919668;29;20087;-76
2022/12/22 04:42:04;;;;;;;21.52;13.80;;;13.30;70.40;;;;;;4919868;29;20051;-76
2022/12/22 04:44:30;;;;;;;24.02;13.68;;;13.30;70.60;;;;;;4919417;29;20044;-72
2022/12/22 04:46:56;;;;;;;25.45;13.00;;;13.30;70.70;;;;;;4919688;29;20079;-77
2022/12/22 04:49:21;;;;;;;21.30;13.23;;;13.40;71.00;;;;;;4903268;29;20363;-76
2022/12/22 04:51:47;;;;;;;27.63;11.43;;;13.50;70.90;;;;;;4918231;29;20146;-77
2022/12/22 04:54:13;;;;;;;27.77;11.75;;;13.70;70.90;;;;;;4915394;29;20048;-75
2022/12/22 04:56:39;;;;;;;24.05;11.65;;;13.80;70.80;;;;;;4917939;29;20435;-79
2022/12/22 04:59:04;;;;;;;23.20;11.70;;;14.00;70.60;;;;;;4918806;29;20059;-78
2022/12/22 05:01:30;;;;;;;25.10;10.18;;;14.20;70.40;;;;;;4919939;29;20051;-76
2022/12/22 05:03:56;;;;;;;24.42;9.60;;;14.30;70.10;;;;;;4918807;29;20123;-82
2022/12/22 05:06:21;;;;;;;22.50;9.30;;;14.40;69.80;;;;;;4902065;29;20115;-80
2022/12/22 05:08:47;;;;;;;13.70;8.05;;;14.50;69.50;;;;;;4919087;29;20032;-79
2022/12/22 05:11:13;;;;;;;20.50;8.18;;;14.60;69.50;;;;;;4902703;29;20062;-80
2022/12/22 05:13:38;;;;;;;16.67;7.93;;;14.70;69.70;;;;;;4902574;29;20527;-79
2022/12/22 05:16:06;;;;;;;16.92;7.78;;;14.70;69.70;;;;;;4912136;29;20044;-77
2022/12/22 05:18:33;;;;;;;16.45;6.25;;;14.80;69.90;;;;;;4900072;29;20052;-78
2022/12/22 05:21:03;;;;;;;16.85;7.43;;;14.80;70.00;;;;;;4899753;29;20048;-74
2022/12/22 05:24:09;;;;;;;19.50;7.25;;;14.90;70.40;;;;;;4899897;29;20058;-79
2022/12/22 05:26:35;;;;;;;20.63;5.90;;;14.90;70.50;;;;;;4876879;29;20062;-82
2022/12/22 05:29:04;;;;;;;15.35;5.80;;;15.00;70.50;;;;;;4868536;29;20040;-76
2022/12/22 05:31:29;;;;;;;13.90;5.45;;;15.10;70.70;;;;;;4895037;29;20570;-80
2022/12/22 05:33:55;;;;;;;14.85;6.40;;;15.10;70.80;;;;;;4902162;29;20040;-82
2022/12/22 05:36:21;;;;;;;15.70;6.15;;;15.10;70.90;;;;;;4899227;29;20430;-80
2022/12/22 05:38:46;;;;;;;16.27;5.80;;;15.20;71.10;;;;;;4921790;29;20102;-80
2022/12/22 05:41:12;;;;;;;10.60;5.15;;;15.20;71.20;;;;;;4936731;29;20496;-83
2022/12/22 05:43:38;;;;;;;13.15;5.43;;;15.30;71.20;;;;;;4919385;29;20070;-82
2022/12/22 05:46:07;;;;;;;12.38;5.10;;;15.30;70.90;;;;;;4918329;29;20040;-81
2022/12/22 05:48:33;;;;;;;19.42;4.97;;;15.30;70.80;;;;;;4920528;29;20106;-79
2022/12/22 05:50:59;;;;;;;16.67;5.90;;;15.30;70.30;;;;;;4920299;29;20399;-81
2022/12/22 05:53:25;;;;;;;12.02;5.03;;;15.40;70.50;;;;;;4920022;29;20028;-83
2022/12/22 05:55:51;;;;;;;11.13;3.97;;;15.40;69.70;;;;;;4909087;29;20110;-78
2022/12/22 05:58:18;;;;;;;9.32;4.28;;;15.40;70.00;;;;;;4946291;29;20050;-77
2022/12/22 06:00:43;;;;;;;11.45;4.60;;;15.50;69.90;;;;;;4924520;29;20048;-79
2022/12/22 06:03:09;;;;;;;10.52;3.90;;;15.60;69.90;;;;;;4913744;29;20036;-80
2022/12/22 06:05:41;;;;;;;12.63;3.78;;;15.70;70.20;;;;;;4901593;29;20040;-79
2022/12/22 06:08:09;;;;;;;12.15;4.50;;;15.70;70.20;;;;;;4913230;29;20049;-79
2022/12/22 06:10:53;;;;;;;15.57;3.70;;;15.80;70.30;;;;;;4901681;29;20040;-82
2022/12/22 06:13:56;;;;;;;8.85;3.85;;;15.90;70.30;;;;;;4918020;29;20044;-80
2022/12/22 06:16:24;;;;;;;9.90;2.87;;;15.90;70.10;;;;;;4842135;29;20066;-79
2022/12/22 06:19:08;;;;;;;10.68;3.47;;;16.00;70.10;;;;;;4909307;29;20286;-81
2022/12/22 06:21:36;;;;;;;10.50;2.92;;;16.00;70.20;;;;;;4905329;29;20370;-83
2022/12/22 06:25:06;;;;;;;10.63;3.63;;;16.20;69.90;;;;;;4889735;29;20040;-82
2022/12/22 06:31:26;;;;;;;12.60;3.35;;;16.20;69.10;;;;;;4826341;29;20054;-85
2022/12/22 06:36:52;;;;;;;8.52;3.00;;;16.20;68.50;;;;;;4902909;29;20036;-83
2022/12/22 06:39:21;;;;;;;6.25;3.00;;;16.30;68.00;;;;;;4908209;29;20394;-83
2022/12/22 06:44:40;;;;;;;;;;;16.20;67.10;;;;;;4940839;29;20103;-84
2022/12/22 06:47:05;;;;;;;5.22;3.40;;;16.20;66.70;;;;;;4923581;29;19918;-81
2022/12/22 06:49:31;;;;;;;6.13;3.25;;;16.10;66.40;;;;;;4940409;29;20035;-80
2022/12/22 06:55:28;;;;;;;6.25;3.25;;;16.00;65.10;;;;;;4910928;29;20043;-80
2022/12/22 07:01:38;;;;;;;7.43;3.10;;;15.90;65.40;;;;;;4932299;29;20425;-78
2022/12/22 07:04:51;;;;;;;;;;;;;;;;;;;;;
2022/12/22 07:12:19;;;;;;;;;;;;;;;;;;;;;
2022/12/22 07:15:21;;;;;;;6.10;2.23;;;15.70;66.30;;;;;;4817024;29;20059;-82
2022/12/22 07:21:27;;;;;;;12.10;2.75;;;15.50;66.30;;;;;;4826130;29;20144;-81
2022/12/22 07:23:53;;;;;;;10.57;3.13;;;15.60;66.80;;;;;;4864433;29;20136;-81
2022/12/22 07:26:19;;;;;;;5.68;2.40;;;15.60;66.90;;;;;;4916662;29;20048;-78
2022/12/22 07:28:44;;;;;;;6.88;2.08;;;15.50;66.90;;;;;;4920707;29;20420;-77
2022/12/22 07:31:11;;;;;;;4.78;1.77;;;15.50;67.00;;;;;;4920433;29;20135;-79
2022/12/22 07:33:37;;;;;;;8.90;2.10;;;15.50;67.10;;;;;;4920712;29;20048;-79
2022/12/22 07:36:07;;;;;;;9.38;1.90;;;15.50;67.10;;;;;;4916148;29;20424;-79
2022/12/22 07:38:35;;;;;;;15.73;4.50;;;15.50;67.20;;;;;;4939826;29;20514;-81
2022/12/22 07:42:43;;;;;;;13.85;5.25;;;15.50;67.50;;;;;;4939774;29;20130;-77
2022/12/22 07:43:54;;;;;;;16.13;4.45;;;15.50;68.10;;;;;;4939235;29;20427;-81
2022/12/22 07:46:21;;;;;;;13.60;4.35;;;15.40;68.30;;;;;;4939785;29;20044;-81
2022/12/22 07:51:33;;;;;;;13.80;4.57;;;15.30;68.80;;;;;;4916103;29;20055;-79
2022/12/22 07:53:59;;;;;;;15.35;4.55;;;15.30;68.80;;;;;;4903995;29;20448;-82
2022/12/22 07:56:25;;;;;;;14.57;4.47;;;15.30;69.10;;;;;;4903617;29;20040;-82
2022/12/22 07:58:50;;;;;;;16.83;4.35;;;15.30;69.40;;;;;;4888294;29;20052;-85
2022/12/22 08:01:16;;;;;;;13.68;4.15;;;15.30;69.60;;;;;;4920215;29;20083;-85
2022/12/22 08:03:42;;;;;;;19.17;4.75;;;15.30;69.70;;;;;;4910637;29;20066;-83
2022/12/22 08:06:08;;;;;;;13.07;4.57;;;15.30;69.70;;;;;;4903397;29;20118;-84
2022/12/22 08:08:33;;;;;;;19.77;4.47;;;15.30;69.80;;;;;;4906025;29;20054;-84
2022/12/22 08:11:04;;;;;;;13.00;3.85;;;15.30;69.80;;;;;;4922369;29;20036;-78
2022/12/22 08:13:30;;;;;;;17.15;4.30;;;15.30;69.80;;;;;;4922237;29;20366;-82
2022/12/22 08:16:03;;;;;;;19.98;6.18;;;15.30;69.80;;;;;;4906012;29;20370;-84
2022/12/22 08:18:43;;;;;;;19.13;5.57;;;15.30;70.80;;;;;;4938809;29;20111;-84
2022/12/22 08:21:24;;;;;;;17.42;5.22;;;15.30;70.30;;;;;;4921751;29;20039;-81
2022/12/22 08:23:51;;;;;;;17.38;5.07;;;15.30;70.30;;;;;;4938767;29;20043;-81
2022/12/22 08:26:40;;;;;;;15.27;5.18;;;15.30;70.10;;;;;;4921961;29;20040;-84
2022/12/22 08:29:12;;;;;;;12.52;5.38;;;15.50;70.10;;;;;;4905856;29;20044;-82
2022/12/22 08:31:40;;;;;;;14.98;5.65;;;15.60;69.80;;;;;;4905721;29;20127;-80
2022/12/22 08:34:08;;;;;;;19.50;5.30;;;15.70;69.50;;;;;;4938595;29;20039;-76
2022/12/22 08:36:39;;;;;;;10.65;4.60;;;15.80;69.40;;;;;;4938258;29;20055;-84
2022/12/22 08:39:05;;;;;;;14.45;4.50;;;15.80;69.30;;;;;;4936951;29;20050;-79
2022/12/22 08:41:50;;;;;;;11.90;4.38;;;15.80;69.20;;;;;;4921423;29;20062;-76
2022/12/22 08:44:29;;;;;;;14.25;4.93;;;15.90;69.00;;;;;;4929883;29;20063;-81
2022/12/22 08:46:57;;;;;;;17.40;5.03;;;15.90;68.90;;;;;;4921496;29;20048;-78
2022/12/22 08:49:23;;;;;;;11.43;5.35;;;16.00;68.90;;;;;;4921432;29;20347;-82
2022/12/22 08:51:50;;;;;;;12.48;4.82;;;16.00;69.70;;;;;;4932660;29;20052;-80
2022/12/22 08:54:17;;;;;;;16.40;5.85;;;16.00;69.60;;;;;;4938221;29;20050;-81
2022/12/22 08:56:44;;;;;;;16.65;5.93;;;16.00;69.30;;;;;;4937882;29;20044;-77
2022/12/22 08:59:10;;;;;;;11.10;5.15;;;16.10;69.50;;;;;;4938220;29;20458;-79
2022/12/22 09:01:38;;;;;;;12.63;5.30;;;16.20;69.60;;;;;;4921660;29;20055;-80
2022/12/22 09:04:08;;;;;;;14.68;4.22;;;16.20;69.50;;;;;;4937313;29;20518;-80
2022/12/22 09:06:34;;;;;;;12.02;3.47;;;16.20;68.20;;;;;;4937432;29;20090;-79
2022/12/22 09:09:02;;;;;;;15.05;4.35;;;16.30;67.70;;;;;;4938080;29;20454;-80
2022/12/22 09:11:28;;;;;;;11.43;3.83;;;16.30;66.90;;;;;;4941011;29;20502;-81
2022/12/22 09:13:57;;;;;;;15.30;3.53;;;16.40;67.00;;;;;;4933596;29;20047;-79
2022/12/22 09:16:25;;;;;;;13.27;3.75;;;16.40;66.60;;;;;;4928523;29;20043;-74
2022/12/22 09:18:51;;;;;;;6.78;3.05;;;16.40;67.10;;;;;;4925963;29;20456;-81
2022/12/22 09:21:22;;;;;;;12.88;3.00;;;16.30;67.00;;;;;;4929857;29;20182;-80
2022/12/22 09:24:57;;;;;;;;;;;;;;;;;;;;;
2022/12/22 09:31:39;;;;;;;;;;;;;;;;;;;;;
2022/12/22 09:38:21;;;;;;;4.22;2.00;;;16.20;67.40;;;;;;4841987;29;20110;-83
2022/12/22 09:40:53;;;;;;;;;;;16.20;67.60;;;;;;4842916;29;20377;-82
2022/12/22 09:43:20;;;;;;;9.75;2.47;;;16.10;67.50;;;;;;4891802;29;19919;-86
2022/12/22 09:45:46;;;;;;;7.65;2.33;;;16.10;67.50;;;;;;4875987;29;20045;-80
2022/12/22 09:48:13;;;;;;;6.18;2.72;;;16.00;67.30;;;;;;4877031;29;20123;-82
2022/12/22 09:50:40;;;;;;;7.50;2.13;;;16.00;66.90;;;;;;4902611;29;20104;-81
2022/12/22 09:53:19;;;;;;;6.50;2.05;;;16.00;66.80;;;;;;4895386;29;20047;-82
2022/12/22 09:55:47;;;;;;;6.13;1.85;;;15.90;67.00;;;;;;4895744;29;20455;-84
2022/12/22 09:58:16;;;;;;;8.48;2.10;;;15.90;67.10;;;;;;4884555;29;20056;-78
2022/12/22 10:00:42;;;;;;;7.25;2.38;;;15.90;67.10;;;;;;4895098;29;20456;-81
2022/12/22 10:03:32;;;;;;;4.03;1.92;;;15.80;67.10;;;;;;4899565;29;20045;-79
2022/12/22 10:06:31;;;;;;;4.38;1.80;;;15.80;67.30;;;;;;4881567;29;20048;-81
2022/12/22 10:09:17;;;;;;;5.57;1.90;;;15.80;67.60;;;;;;4896371;29;20044;-84
2022/12/22 10:12:03;;;;;;;4.05;2.13;;;15.70;67.90;;;;;;4895988;29;20036;-79
2022/12/22 10:14:41;;;;;;;4.40;1.65;;;15.70;68.00;;;;;;4894219;29;20123;-80
2022/12/22 10:17:15;;;;;;;6.60;2.03;;;15.70;68.10;;;;;;4880860;29;20046;-83
2022/12/22 10:19:41;;;;;;;5.45;1.92;;;15.70;68.10;;;;;;4884597;29;20044;-83
2022/12/22 10:22:26;;;;;;;14.70;2.38;;;15.70;68.10;;;;;;4886288;29;20087;-84
2022/12/22 10:24:52;;;;;;;8.55;2.00;;;15.70;67.90;;;;;;4902202;29;20052;-83
2022/12/22 10:27:20;;;;;;;7.68;1.70;;;15.60;67.40;;;;;;4880646;29;20036;-82
2022/12/22 10:29:47;;;;;;;10.02;2.00;;;15.60;66.30;;;;;;4884410;29;20120;-83
2022/12/22 10:32:17;;;;;;;13.60;2.60;;;15.60;65.90;;;;;;4903420;29;20337;-84
2022/12/22 10:35:01;;;;;;;8.50;2.35;;;15.60;64.70;;;;;;4918903;29;20123;-81
2022/12/22 10:37:37;;;;;;;17.70;3.05;;;15.60;64.30;;;;;;4923862;29;20091;-80
2022/12/22 10:40:19;;;;;;;7.45;1.95;;;15.50;60.60;;;;;;4940710;29;20066;-79
2022/12/22 10:42:54;;;;;;;9.43;2.38;;;15.20;59.50;;;;;;4908147;29;20058;-76
2022/12/22 10:45:45;;;;;;;19.25;2.63;;;14.90;60.30;;;;;;4940773;29;20051;-82
2022/12/22 10:48:11;;;;;;;13.95;2.47;;;14.60;61.40;;;;;;4923098;29;20118;-79
2022/12/22 10:50:45;;;;;;;16.88;2.65;;;14.40;62.60;;;;;;4940468;29;20450;-78
2022/12/22 10:53:10;;;;;;;12.98;2.60;;;14.40;63.20;;;;;;4940435;29;20082;-78
2022/12/22 10:55:38;;;;;;;16.08;2.45;;;14.50;63.40;;;;;;4915789;29;20423;-78
2022/12/22 10:58:09;;;;;;;6.35;1.92;;;14.50;63.50;;;;;;4923255;29;20115;-79
2022/12/22 11:00:38;;;;;;;14.70;2.90;;;14.60;63.60;;;;;;4940286;29;20139;-79
2022/12/22 11:03:06;;;;;;;11.77;2.13;;;14.60;63.50;;;;;;4923710;29;20051;-79
2022/12/22 11:05:32;;;;;;;13.23;2.80;;;14.60;63.50;;;;;;4940253;29;20055;-79
2022/12/22 11:08:16;;;;;;;10.63;2.03;;;14.70;63.60;;;;;;4940164;29;20355;-79
2022/12/22 11:11:05;;;;;;;8.05;1.83;;;14.80;63.70;;;;;;4940087;29;20055;-78
2022/12/22 11:13:40;;;;;;;11.02;1.95;;;14.80;63.80;;;;;;4923210;29;20134;-79
2022/12/22 11:16:39;;;;;;;6.43;1.60;;;14.80;63.80;;;;;;4940390;29;20380;-80
2022/12/22 11:19:37;;;;;;;9.95;2.05;;;14.80;63.90;;;;;;4923454;29;20455;-79
2022/12/22 11:22:36;;;;;;;8.27;1.92;;;14.90;63.90;;;;;;4929472;29;20174;-78
2022/12/22 11:25:23;;;;;;;8.77;1.88;;;14.90;63.90;;;;;;4923247;29;20087;-79
2022/12/22 11:28:03;;;;;;;8.57;1.75;;;14.90;63.90;;;;;;4939599;29;20050;-78
2022/12/22 11:31:01;;;;;;;5.30;1.40;;;14.90;63.90;;;;;;4922996;29;20043;-78
2022/12/22 11:34:03;;;;;;;8.93;1.77;;;14.90;63.90;;;;;;4906913;29;20099;-80
2022/12/22 11:36:53;;;;;;;11.35;1.80;;;14.90;64.00;;;;;;4895314;29;20527;-79
2022/12/22 11:39:42;;;;;;;13.35;2.60;;;14.90;64.20;;;;;;4906961;29;20047;-79
2022/12/22 11:42:40;;;;;;;14.60;2.63;;;14.90;64.30;;;;;;4939138;29;20059;-76
2022/12/22 11:45:43;;;;;;;16.23;2.47;;;14.80;64.70;;;;;;4920607;29;20119;-78
2022/12/22 11:48:23;;;;;;;11.45;2.22;;;14.80;64.70;;;;;;4939650;29;20036;-78
2022/12/22 11:51:05;;;;;;;12.20;2.03;;;14.80;64.80;;;;;;4939341;29;20048;-77
2022/12/22 11:53:50;;;;;;;19.90;2.60;;;15.00;65.00;;;;;;4939864;29;20134;-76
2022/12/22 11:56:28;;;;;;;21.40;3.22;;;15.20;65.10;;;;;;4920855;29;20047;-79
2022/12/22 11:59:26;;;;;;;25.58;3.28;;;15.30;65.00;;;;;;4939166;29;20063;-77
2022/12/22 12:01:58;;;;;;;18.77;2.92;;;15.40;65.20;;;;;;4922330;29;20473;-78
2022/12/22 12:04:42;;;;;;;22.38;2.65;;;15.60;65.00;;;;;;4922281;29;20462;-81
2022/12/22 12:07:11;;;;;;;;;;;15.60;65.00;;;;;;4906700;29;20051;-81
2022/12/22 12:09:48;;;;;;;15.85;2.00;;;15.70;65.20;;;;;;4922546;29;20021;-80
2022/12/22 12:12:45;;;;;;;14.00;2.55;;;15.70;65.20;;;;;;4939170;29;20329;-79
2022/12/22 12:15:33;;;;;;;10.75;2.50;;;15.80;65.30;;;;;;4921375;29;20048;-79
2022/12/22 12:18:29;;;;;;;16.92;2.38;;;15.80;65.30;;;;;;4938855;29;20062;-79
2022/12/22 12:21:20;;;;;;;14.70;2.35;;;15.90;65.20;;;;;;4938545;29;20103;-81
2022/12/22 12:24:18;;;;;;;19.33;2.70;;;15.90;65.20;;;;;;4938838;29;20059;-79
2022/12/22 12:27:02;;;;;;;20.33;2.88;;;15.90;65.30;;;;;;4871562;29;20064;-78
2022/12/22 12:29:34;;;;;;;;;;;16.00;65.50;;;;;;4939110;29;20055;-80
2022/12/22 12:32:04;;;;;;;14.02;1.95;;;16.00;65.50;;;;;;4938600;29;19926;-78
2022/12/22 12:34:33;;;;;;;12.10;2.10;;;16.10;65.30;;;;;;4922149;29;20055;-78
2022/12/22 12:37:02;;;;;;;18.83;2.72;;;16.20;65.10;;;;;;4938271;29;20443;-78
2022/12/22 12:39:41;;;;;;;13.40;2.53;;;16.20;64.90;;;;;;4937919;29;20106;-79
2022/12/22 12:42:12;;;;;;;21.27;2.65;;;16.30;65.00;;;;;;4905373;29;20051;-81
2022/12/22 12:44:39;;;;;;;13.60;2.28;;;16.40;64.90;;;;;;4920785;29;20474;-79
2022/12/22 12:47:21;;;;;;;25.27;2.80;;;16.40;65.00;;;;;;4937971;29;20416;-79
2022/12/22 12:49:53;;;;;;;25.88;3.28;;;16.40;65.10;;;;;;4938458;29;20398;-78
2022/12/22 12:52:39;;;;;;;19.77;2.50;;;16.50;65.00;;;;;;4921368;29;20366;-78
2022/12/22 12:55:24;;;;;;;23.23;3.83;;;16.50;65.00;;;;;;4921536;29;20067;-81
2022/12/22 12:57:51;;;;;;;33.92;3.78;;;16.50;65.00;;;;;;4904961;29;20083;-87
2022/12/22 13:00:42;;;;;;;23.38;2.65;;;16.60;65.10;;;;;;4921427;29;20058;-82
2022/12/22 13:03:10;;;;;;;29.13;3.40;;;16.60;65.10;;;;;;4916671;29;20051;-81
2022/12/22 13:05:52;;;;;;;25.75;3.58;;;16.50;65.10;;;;;;4913216;29;20051;-81
2022/12/22 13:08:23;;;;;;;20.00;2.95;;;16.50;65.30;;;;;;4902112;29;20087;-82
2022/12/22 13:10:58;;;;;;;25.73;2.85;;;16.50;65.40;;;;;;4919018;29;20052;-81
2022/12/22 13:13:24;;;;;;;22.67;3.22;;;16.50;65.40;;;;;;4902098;29;20102;-78
2022/12/22 13:15:59;;;;;;;17.73;2.88;;;16.50;65.60;;;;;;4901827;29;20138;-80
2022/12/22 13:18:25;;;;;;;20.52;4.10;;;16.50;65.90;;;;;;4901625;29;20215;-78
2022/12/22 13:21:26;;;;;;;28.83;3.38;;;16.50;65.90;;;;;;4922719;29;20052;-81
2022/12/22 13:24:00;;;;;;;20.58;3.63;;;16.40;66.00;;;;;;4920873;29;20055;-80
2022/12/22 13:26:54;;;;;;;23.75;3.05;;;16.40;65.90;;;;;;4920306;29;20044;-79
2022/12/22 13:29:38;;;;;;;25.05;3.35;;;16.50;65.90;;;;;;4903596;29;20063;-79
2022/12/22 13:32:27;;;;;;;26.70;3.28;;;16.40;66.10;;;;;;4937998;29;20332;-77
2022/12/22 13:35:34;;;;;;;34.70;4.10;;;16.50;66.00;;;;;;4920653;29;20055;-77
2022/12/22 13:38:00;;;;;;;22.33;2.05;;;16.40;66.10;;;;;;4932436;29;20062;-76
2022/12/22 13:40:38;;;;;;;20.27;3.38;;;16.40;66.30;;;;;;4921203;29;20056;-76
2022/12/22 13:43:10;;;;;;;19.00;2.72;;;16.40;66.30;;;;;;4937953;29;20058;-75
2022/12/22 13:45:37;;;;;;;23.63;2.92;;;16.40;66.30;;;;;;4937011;29;20052;-76
2022/12/22 13:48:36;;;;;;;25.10;3.17;;;16.40;66.20;;;;;;4937616;29;20404;-75
2022/12/22 13:51:07;;;;;;;30.27;3.53;;;16.40;66.20;;;;;;4921027;29;20136;-76
2022/12/22 13:53:46;;;;;;;28.05;2.75;;;16.50;66.30;;;;;;4920856;29;20134;-77
2022/12/22 13:56:16;;;;;;;22.90;2.75;;;16.50;66.30;;;;;;4937423;29;20340;-77
2022/12/22 13:58:44;;;;;;;28.73;3.95;;;16.50;66.20;;;;;;4936969;29;20052;-76
2022/12/22 14:01:09;;;;;;;22.98;2.75;;;16.50;66.10;;;;;;4937553;29;20347;-75
2022/12/22 14:03:56;;;;;;;29.55;3.03;;;16.50;65.50;;;;;;4937488;29;20075;-77
2022/12/22 14:06:30;;;;;;;20.40;2.83;;;16.50;64.90;;;;;;4937474;29;20106;-74
2022/12/22 14:09:25;;;;;;;20.63;2.40;;;16.40;64.70;;;;;;4937979;29;20351;-74
2022/12/22 14:12:02;;;;;;;21.38;3.47;;;16.30;64.60;;;;;;4937421;29;20043;-74
2022/12/22 14:14:33;;;;;;;24.13;2.85;;;16.30;65.00;;;;;;4920147;29;20051;-80
2022/12/22 14:17:00;;;;;;;24.40;4.63;;;16.20;65.10;;;;;;4937306;29;20083;-80
2022/12/22 14:19:34;;;;;;;26.33;4.55;;;16.20;65.70;;;;;;4936906;29;20134;-81
2022/12/22 14:22:13;;;;;;;27.58;5.32;;;16.20;66.60;;;;;;4891704;29;20139;-82
2022/12/22 14:24:53;;;;;;;27.48;4.38;;;16.20;66.90;;;;;;4901451;29;20084;-80
2022/12/22 14:27:42;;;;;;;34.80;4.05;;;16.20;66.60;;;;;;4925550;29;20518;-79
2022/12/22 14:30:40;;;;;;;28.48;4.68;;;16.10;66.40;;;;;;4920539;29;20064;-74
2022/12/22 14:33:31;;;;;;;17.70;3.42;;;16.10;65.80;;;;;;4937172;29;20078;-73
2022/12/22 14:36:26;;;;;;;21.05;3.53;;;16.10;66.00;;;;;;4920107;29;20047;-76
2022/12/22 14:38:57;;;;;;;20.45;3.53;;;16.00;65.70;;;;;;4938485;29;20079;-76
2022/12/22 14:41:41;;;;;;;18.35;4.30;;;16.00;66.30;;;;;;4916093;29;20122;-77
2022/12/22 14:44:36;;;;;;;16.95;3.50;;;16.00;66.70;;;;;;4913857;29;20186;-78
2022/12/22 14:47:11;;;;;;;28.65;5.18;;;16.00;67.00;;;;;;4926438;29;20094;-77
2022/12/22 14:49:48;;;;;;;14.68;2.97;;;16.00;67.20;;;;;;4930062;29;20044;-77
2022/12/22 14:52:44;;;;;;;18.23;3.40;;;16.00;67.50;;;;;;4914584;29;20044;-76
2022/12/22 14:55:32;;;;;;;17.27;2.30;;;16.00;67.60;;;;;;4941190;29;20043;-77
2022/12/22 14:58:22;;;;;;;11.13;2.92;;;16.00;67.50;;;;;;4935117;29;20348;-76
2022/12/22 15:01:14;;;;;;;11.15;2.65;;;15.90;67.30;;;;;;4934581;29;20055;-77
2022/12/22 15:03:40;;;;;;;12.60;2.28;;;15.90;67.10;;;;;;4940313;29;20055;-76
2022/12/22 15:06:23;;;;;;;15.50;2.60;;;15.90;67.20;;;;;;4908175;29;20055;-77
2022/12/22 15:08:52;;;;;;;8.88;2.17;;;15.90;67.00;;;;;;4940595;29;20327;-77
2022/12/22 15:11:21;;;;;;;11.32;2.53;;;15.90;67.00;;;;;;4940661;29;20059;-77
2022/12/22 15:13:49;;;;;;;12.63;2.92;;;15.80;66.80;;;;;;4940918;29;20047;-78
2022/12/22 15:16:17;;;;;;;14.05;2.55;;;15.80;66.70;;;;;;4940635;29;20102;-76
2022/12/22 15:18:43;;;;;;;10.60;2.63;;;15.80;66.60;;;;;;4940294;29;20131;-76
2022/12/22 15:21:13;;;;;;;8.85;1.60;;;15.80;66.70;;;;;;4940005;29;20047;-77
2022/12/22 15:23:39;;;;;;;9.40;2.10;;;15.80;66.60;;;;;;4939881;29;20055;-78
2022/12/22 15:26:05;;;;;;;13.88;2.72;;;15.70;66.50;;;;;;4939652;29;20451;-77
2022/12/22 15:28:31;;;;;;;10.60;2.15;;;15.80;66.50;;;;;;4940195;29;20062;-76
2022/12/22 15:31:02;;;;;;;11.43;2.22;;;15.70;66.30;;;;;;4940249;29;20166;-76
2022/12/22 15:33:29;;;;;;;15.45;2.72;;;15.80;66.10;;;;;;4939536;29;20047;-77
2022/12/22 15:35:55;;;;;;;9.00;1.70;;;15.80;65.90;;;;;;4939576;29;20063;-76
2022/12/22 15:38:23;;;;;;;8.00;2.30;;;15.70;65.70;;;;;;4939492;29;20135;-77
2022/12/22 15:40:50;;;;;;;7.90;1.88;;;15.70;65.70;;;;;;4940498;29;20103;-76
2022/12/22 15:43:15;;;;;;;5.68;1.92;;;15.70;65.70;;;;;;4939256;29;20044;-75
2022/12/22 15:45:42;;;;;;;4.47;1.65;;;15.70;65.60;;;;;;4939661;29;20057;-76
2022/12/22 15:48:22;;;;;;;6.22;1.63;;;15.70;65.60;;;;;;4939629;29;20048;-78
2022/12/22 15:50:48;;;;;;;6.90;2.10;;;15.70;65.70;;;;;;4939256;29;20414;-77
2022/12/22 15:53:17;;;;;;;8.85;1.90;;;15.70;65.70;;;;;;4922973;29;20043;-76
2022/12/22 15:55:48;;;;;;;6.25;1.75;;;15.70;65.70;;;;;;4939541;29;20056;-76
2022/12/22 15:58:17;;;;;;;7.95;2.47;;;15.70;65.70;;;;;;4939536;29;20090;-75
2022/12/22 16:00:43;;;;;;;10.20;2.35;;;15.60;65.60;;;;;;4922517;29;20055;-77
2022/12/22 16:03:10;;;;;;;5.88;1.70;;;15.60;65.50;;;;;;4939066;29;20087;-76
2022/12/22 16:05:36;;;;;;;7.93;2.15;;;15.60;65.60;;;;;;4939411;29;20048;-76
2022/12/22 16:08:03;;;;;;;5.25;2.13;;;15.60;65.50;;;;;;4939123;29;20455;-77
2022/12/22 16:10:32;;;;;;;4.95;1.90;;;15.60;65.50;;;;;;4939897;29;20466;-77
2022/12/22 16:13:01;;;;;;;4.80;1.75;;;15.50;65.40;;;;;;4939220;29;20056;-76
2022/12/22 16:15:32;;;;;;;4.18;1.98;;;15.50;65.50;;;;;;4939442;29;20134;-76
2022/12/22 16:18:02;;;;;;;6.35;2.13;;;15.50;65.50;;;;;;4922045;29;20048;-77
2022/12/22 16:20:30;;;;;;;4.65;2.13;;;15.50;65.60;;;;;;4938867;29;20057;-77
2022/12/22 16:22:57;;;;;;;6.13;2.40;;;15.50;65.60;;;;;;4920242;29;20187;-76
2022/12/22 16:25:34;;;;;;;5.63;1.80;;;15.50;65.60;;;;;;4919936;29;20036;-76
2022/12/22 16:28:00;;;;;;;4.50;2.05;;;15.40;65.60;;;;;;4904122;29;20155;-76
2022/12/22 16:30:31;;;;;;;4.03;2.45;;;15.40;65.70;;;;;;4919536;29;20047;-76
2022/12/22 16:32:58;;;;;;;6.03;1.90;;;15.40;65.70;;;;;;4919858;29;20044;-77
2022/12/22 16:35:27;;;;;;;4.63;1.88;;;15.40;65.70;;;;;;4919618;29;20114;-76
2022/12/22 16:37:57;;;;;;;7.30;2.25;;;15.40;65.80;;;;;;4919712;29;20055;-78
2022/12/22 16:40:25;;;;;;;4.25;2.15;;;15.40;65.80;;;;;;4903688;29;20056;-77
2022/12/22 16:43:12;;;;;;;5.53;2.30;;;15.40;65.90;;;;;;4922004;29;20052;-76
2022/12/22 16:45:43;;;;;;;5.80;2.28;;;15.40;65.90;;;;;;4921776;29;20052;-76
2022/12/22 16:48:20;;;;;;;6.82;2.50;;;15.30;66.00;;;;;;4919389;29;20055;-73
2022/12/22 16:50:47;;;;;;;8.32;2.40;;;15.30;66.10;;;;;;4925857;29;20135;-78
2022/12/22 16:53:13;;;;;;;8.82;2.30;;;15.30;66.30;;;;;;4937816;29;20047;-75
2022/12/22 16:55:39;;;;;;;5.72;2.55;;;15.30;66.30;;;;;;4906194;29;20070;-79
2022/12/22 16:58:05;;;;;;;8.88;2.60;;;15.30;66.30;;;;;;4921721;29;20111;-77
2022/12/22 17:00:34;;;;;;;5.93;2.28;;;15.30;66.30;;;;;;4937704;29;20056;-78
2022/12/22 17:03:05;;;;;;;8.65;3.30;;;15.30;66.50;;;;;;4902680;29;20443;-82
2022/12/22 17:05:38;;;;;;;6.82;2.15;;;15.20;66.60;;;;;;4921517;29;20059;-82
2022/12/22 17:08:07;;;;;;;9.05;2.85;;;15.20;66.60;;;;;;4905767;29;20044;-80
2022/12/22 17:10:35;;;;;;;6.93;2.60;;;15.20;66.70;;;;;;4938183;29;20043;-81
2022/12/22 17:13:01;;;;;;;9.50;2.83;;;15.20;66.90;;;;;;4938160;29;20146;-79
2022/12/22 17:15:27;;;;;;;8.05;2.70;;;15.20;67.20;;;;;;4905863;29;20052;-79
2022/12/22 17:17:53;;;;;;;11.57;3.40;;;15.30;67.30;;;;;;4938235;29;20131;-77
2022/12/22 17:20:25;;;;;;;14.95;4.20;;;15.20;67.40;;;;;;4920761;29;20447;-80
2022/12/22 17:23:04;;;;;;;23.98;4.40;;;15.30;67.70;;;;;;4920210;29;20055;-84
2022/12/22 17:25:42;;;;;;;15.52;4.00;;;15.20;67.80;;;;;;4897779;29;20088;-84
2022/12/22 17:28:12;;;;;;;17.48;3.90;;;15.30;67.90;;;;;;4883319;29;20139;-84
2022/12/22 17:30:40;;;;;;;9.55;3.30;;;15.20;67.90;;;;;;4901390;29;20036;-84
2022/12/22 17:33:16;;;;;;;23.48;4.80;;;15.20;68.60;;;;;;4901904;29;20044;-78
2022/12/22 17:35:43;;;;;;;14.18;3.58;;;15.30;68.30;;;;;;4901629;29;20064;-82
2022/12/22 17:38:19;;;;;;;21.17;4.28;;;15.20;68.50;;;;;;4934383;29;20052;-75
2022/12/22 17:40:47;;;;;;;16.33;4.15;;;15.20;68.70;;;;;;4937744;29;20043;-83
2022/12/22 17:43:15;;;;;;;18.25;3.70;;;15.20;68.80;;;;;;4904773;29;20043;-81
2022/12/22 17:45:44;;;;;;;22.25;4.22;;;15.20;68.60;;;;;;4920639;29;20510;-80
2022/12/22 17:48:11;;;;;;;15.85;4.65;;;15.20;68.50;;;;;;4920821;29;20063;-81
2022/12/22 17:50:37;;;;;;;13.43;4.57;;;15.20;68.30;;;;;;4937491;29;20172;-81
2022/12/22 17:53:05;;;;;;;15.52;4.72;;;15.20;68.10;;;;;;4937955;29;20039;-78
2022/12/22 17:55:31;;;;;;;15.18;3.70;;;15.20;68.00;;;;;;4937697;29;20130;-80
2022/12/22 17:57:57;;;;;;;18.92;4.43;;;15.20;68.00;;;;;;4921120;29;20178;-81
2022/12/22 18:00:26;;;;;;;14.68;3.50;;;15.20;67.90;;;;;;4921058;29;20463;-82
2022/12/22 18:02:52;;;;;;;12.88;4.07;;;15.20;67.80;;;;;;4920629;29;20419;-81
2022/12/22 18:05:25;;;;;;;13.27;4.20;;;15.20;67.80;;;;;;4920866;29;20040;-82
2022/12/22 18:07:52;;;;;;;15.27;4.90;;;15.20;67.70;;;;;;4905298;29;20051;-81
2022/12/22 18:10:38;;;;;;;11.13;4.18;;;15.20;67.60;;;;;;4920824;29;20055;-81
2022/12/22 18:13:10;;;;;;;9.35;3.50;;;15.20;67.70;;;;;;4906870;29;20134;-82
2022/12/22 18:15:35;;;;;;;10.23;4.00;;;15.20;67.90;;;;;;4941333;29;20094;-80
2022/12/22 18:18:01;;;;;;;13.95;4.03;;;15.10;67.80;;;;;;4924474;29;20079;-81
2022/12/22 18:20:28;;;;;;;14.20;3.60;;;15.10;67.90;;;;;;4923881;29;20122;-82
2022/12/22 18:22:58;;;;;;;10.15;4.07;;;15.10;68.10;;;;;;4924742;29;20048;-80
2022/12/22 18:25:30;;;;;;;12.48;3.67;;;15.10;68.30;;;;;;4940959;29;20083;-81